Time;durP1;ratioP1;P1;durP2;ratioP2;P2;SDS_P1;SDS_P2;PMS_P1;PMS_P2;Temp;Humidity;BMP_temperature;BMP_pressure;BME280_temperature;BME280_humidity;BME280_pressure;Samples;Min_cycle;Max_cycle;Signal;HPM_P1;HPM_P2
2023/01/26 00:01:34;;;;;;;15.57;11.30;;;-0.40;99.90;;;;;;5066566;28;20178;-65
2023/01/26 00:03:59;;;;;;;13.20;12.07;;;-0.40;99.90;;;;;;5073063;28;20185;-65
2023/01/26 00:06:25;;;;;;;11.47;10.57;;;-0.40;99.90;;;;;;5061030;28;20236;-65
2023/01/26 00:08:54;;;;;;;16.77;11.43;;;-0.40;99.90;;;;;;5053103;28;20270;-65
2023/01/26 00:11:25;;;;;;;14.60;11.17;;;-0.50;99.90;;;;;;5057432;28;20202;-65
2023/01/26 00:13:52;;;;;;;14.00;11.33;;;-0.50;99.90;;;;;;5053306;28;20178;-64
2023/01/26 00:16:18;;;;;;;32.07;11.97;;;-0.50;99.90;;;;;;5054004;28;20205;-64
2023/01/26 00:18:44;;;;;;;26.70;10.60;;;-0.40;99.90;;;;;;5054586;28;20167;-65
2023/01/26 00:21:19;;;;;;;10.60;9.67;;;-0.40;99.90;;;;;;5053298;28;20178;-65
2023/01/26 00:23:45;;;;;;;12.07;10.07;;;-0.50;99.90;;;;;;5052880;28;20175;-65
2023/01/26 00:26:19;;;;;;;12.47;11.43;;;-0.50;99.90;;;;;;5058570;28;20189;-65
2023/01/26 00:28:44;;;;;;;11.80;10.57;;;-0.50;99.90;;;;;;5072740;28;20577;-65
2023/01/26 00:31:21;;;;;;;18.33;11.80;;;-0.50;99.90;;;;;;5066263;28;20183;-65
2023/01/26 00:33:47;;;;;;;19.47;10.93;;;-0.50;99.90;;;;;;5052531;28;20201;-65
2023/01/26 00:36:13;;;;;;;14.73;10.57;;;-0.40;99.90;;;;;;5056558;28;20204;-65
2023/01/26 00:38:40;;;;;;;11.27;10.07;;;-0.40;99.90;;;;;;5072438;28;20212;-65
2023/01/26 00:41:06;;;;;;;22.33;11.97;;;-0.40;99.90;;;;;;5068006;28;20170;-65
2023/01/26 00:43:31;;;;;;;20.50;10.70;;;-0.40;99.90;;;;;;5052315;28;20257;-65
2023/01/26 00:45:57;;;;;;;19.30;11.00;;;-0.30;99.90;;;;;;5054194;28;20221;-65
2023/01/26 00:48:22;;;;;;;17.67;11.67;;;-0.30;99.90;;;;;;5071515;28;20238;-64
2023/01/26 00:50:52;;;;;;;23.93;12.10;;;-0.30;99.90;;;;;;5071540;28;20178;-64
2023/01/26 00:53:17;;;;;;;10.83;9.73;;;-0.20;99.90;;;;;;5032012;28;20259;-65
2023/01/26 00:55:43;;;;;;;10.43;9.57;;;-0.40;99.90;;;;;;5031407;28;20278;-64
2023/01/26 00:58:09;;;;;;;33.63;11.63;;;-0.40;99.90;;;;;;5068636;28;20614;-65
2023/01/26 01:00:37;;;;;;;20.70;10.17;;;-0.50;99.90;;;;;;5071529;28;20236;-65
2023/01/26 01:03:03;;;;;;;15.13;11.50;;;-0.50;99.90;;;;;;5054325;28;20217;-65
2023/01/26 01:05:30;;;;;;;12.60;9.43;;;-0.50;99.90;;;;;;5051999;28;20175;-65
2023/01/26 01:07:57;;;;;;;26.43;12.53;;;-0.50;99.90;;;;;;5052254;28;20198;-65
2023/01/26 01:10:23;;;;;;;12.77;11.53;;;-0.40;99.90;;;;;;5051221;28;20183;-65
2023/01/26 01:12:49;;;;;;;20.90;13.40;;;-0.50;99.90;;;;;;5065239;28;20178;-65
2023/01/26 01:15:15;;;;;;;21.10;12.05;;;-0.50;99.90;;;;;;5071690;28;20459;-65
2023/01/26 01:17:41;;;;;;;20.47;12.43;;;-0.40;99.90;;;;;;5059424;28;20198;-65
2023/01/26 01:20:08;;;;;;;12.33;9.97;;;-0.30;99.90;;;;;;5051326;28;20206;-65
2023/01/26 01:22:34;;;;;;;22.10;11.17;;;-0.30;99.90;;;;;;5052111;28;20174;-64
2023/01/26 01:25:00;;;;;;;20.23;11.70;;;-0.20;99.90;;;;;;5051873;28;20163;-64
2023/01/26 01:27:25;;;;;;;24.43;12.10;;;-0.20;99.90;;;;;;5059843;28;20723;-64
2023/01/26 01:29:51;;;;;;;32.17;12.20;;;-0.10;99.90;;;;;;5071632;28;20267;-65
2023/01/26 01:32:18;;;;;;;15.00;13.27;;;-0.20;99.90;;;;;;5064342;28;20535;-65
2023/01/26 01:34:46;;;;;;;9.20;8.37;;;-0.10;99.90;;;;;;5051621;28;20178;-64
2023/01/26 01:37:12;;;;;;;11.77;9.67;;;0.00;99.90;;;;;;5056377;28;20213;-65
2023/01/26 01:39:38;;;;;;;21.87;11.90;;;0.00;99.90;;;;;;5071483;28;20170;-64
2023/01/26 01:42:04;;;;;;;13.37;12.17;;;0.00;99.90;;;;;;5067532;28;20655;-64
2023/01/26 01:44:29;;;;;;;14.57;10.90;;;0.00;99.90;;;;;;5051410;28;20182;-65
2023/01/26 01:47:01;;;;;;;11.30;10.20;;;0.00;99.90;;;;;;5052905;28;20217;-66
2023/01/26 01:49:34;;;;;;;19.20;13.60;;;-0.10;99.90;;;;;;5071153;28;20186;-66
2023/01/26 01:52:09;;;;;;;20.73;10.43;;;-0.10;99.90;;;;;;5069595;28;20196;-65
2023/01/26 01:54:43;;;;;;;11.10;9.63;;;0.00;99.90;;;;;;5051398;28;20640;-65
2023/01/26 01:57:14;;;;;;;12.43;11.50;;;-0.10;99.90;;;;;;5053148;28;20214;-65
2023/01/26 01:59:45;;;;;;;29.10;13.47;;;-0.10;99.90;;;;;;5071169;28;20611;-65
2023/01/26 02:02:11;;;;;;;22.37;11.97;;;-0.10;99.90;;;;;;5069062;28;20253;-65
2023/01/26 02:04:37;;;;;;;14.90;10.10;;;0.00;99.90;;;;;;5051308;28;20178;-65
2023/01/26 02:07:03;;;;;;;25.73;14.63;;;-0.10;99.90;;;;;;5051005;28;20191;-65
2023/01/26 02:12:25;;;;;;;17.90;9.80;;;-0.10;99.90;;;;;;5068285;28;20554;-65
2023/01/26 02:14:52;;;;;;;13.47;11.67;;;-0.10;99.90;;;;;;5051214;28;20192;-65
2023/01/26 02:17:18;;;;;;;16.00;11.23;;;-0.10;99.90;;;;;;5051067;28;20199;-65
2023/01/26 02:20:18;;;;;;;18.97;10.93;;;-0.10;99.90;;;;;;5051218;28;20184;-66
2023/01/26 02:22:53;;;;;;;18.53;10.30;;;-0.10;99.90;;;;;;5031221;28;20655;-65
2023/01/26 02:25:33;;;;;;;14.20;11.33;;;0.00;99.90;;;;;;5071070;28;20647;-65
2023/01/26 02:27:58;;;;;;;23.60;10.23;;;-0.10;99.90;;;;;;5065909;28;20711;-65
2023/01/26 02:30:26;;;;;;;12.40;10.70;;;-0.10;99.90;;;;;;5050764;28;20254;-65
2023/01/26 02:32:52;;;;;;;17.43;12.23;;;-0.10;99.90;;;;;;5053918;28;20170;-65
2023/01/26 02:35:17;;;;;;;20.53;11.37;;;-0.10;99.90;;;;;;5070898;28;20249;-65
2023/01/26 02:37:43;;;;;;;14.70;10.27;;;0.00;99.90;;;;;;5067682;28;20190;-64
2023/01/26 02:40:29;;;;;;;13.23;10.57;;;0.00;99.90;;;;;;5049578;28;20178;-65
2023/01/26 02:42:54;;;;;;;11.00;10.10;;;0.00;99.90;;;;;;5051770;28;20244;-65
2023/01/26 02:45:21;;;;;;;16.60;11.03;;;0.00;99.90;;;;;;5070785;28;20638;-66
2023/01/26 02:47:47;;;;;;;15.57;9.83;;;-0.10;99.90;;;;;;5070218;28;20694;-66
2023/01/26 02:50:13;;;;;;;15.27;10.93;;;-0.10;99.90;;;;;;5050258;28;20182;-65
2023/01/26 02:52:39;;;;;;;14.73;12.77;;;-0.10;99.90;;;;;;5050790;28;20305;-65
2023/01/26 02:55:24;;;;;;;14.50;11.43;;;-0.10;99.90;;;;;;5069624;28;20261;-65
2023/01/26 02:57:55;;;;;;;10.10;9.30;;;-0.10;99.90;;;;;;5070548;28;20502;-66
2023/01/26 03:00:28;;;;;;;13.53;10.50;;;-0.10;99.90;;;;;;5033820;28;20181;-65
2023/01/26 03:02:56;;;;;;;15.93;9.93;;;-0.10;99.90;;;;;;5034587;28;20205;-66
2023/01/26 03:05:22;;;;;;;17.20;11.77;;;-0.10;99.90;;;;;;5034327;28;20182;-65
2023/01/26 03:07:47;;;;;;;13.73;12.43;;;-0.10;99.90;;;;;;5049643;28;20575;-66
2023/01/26 03:10:15;;;;;;;10.63;9.67;;;0.00;99.90;;;;;;5070851;28;20174;-64
2023/01/26 03:12:41;;;;;;;15.00;10.20;;;0.00;99.90;;;;;;5073652;28;20539;-65
2023/01/26 03:27:25;;;;;;;12.97;10.10;;;0.00;99.90;;;;;;5054080;28;20206;-66
2023/01/26 03:28:53;;;;;;;12.93;11.60;;;-0.10;99.90;;;;;;5033833;28;20245;-66
2023/01/26 03:31:19;;;;;;;10.10;8.83;;;-0.10;99.90;;;;;;5033498;28;20637;-64
2023/01/26 03:33:44;;;;;;;12.97;9.73;;;-0.20;99.90;;;;;;5072860;28;20178;-65
2023/01/26 03:36:10;;;;;;;14.07;10.47;;;-0.20;99.90;;;;;;5073176;28;20251;-65
2023/01/26 03:38:35;;;;;;;11.13;10.23;;;-0.10;99.90;;;;;;5055380;28;20182;-65
2023/01/26 03:57:28;;;;;;;17.20;10.00;;;-0.20;99.90;;;;;;5065727;28;20214;-65
2023/01/26 03:59:53;;;;;;;9.63;9.03;;;-0.20;99.90;;;;;;5052869;28;20259;-65
2023/01/26 04:10:31;;;;;;;11.80;9.53;;;-0.30;99.90;;;;;;5050799;28;20181;-65
2023/01/26 04:23:57;;;;;;;24.17;10.37;;;-0.50;99.90;;;;;;5067327;28;20224;-65
2023/01/26 04:26:24;;;;;;;9.73;8.70;;;-0.50;99.90;;;;;;5072503;28;20622;-65
2023/01/26 04:28:50;;;;;;;11.73;10.27;;;-0.40;99.90;;;;;;5058588;28;20273;-65
2023/01/26 04:31:16;;;;;;;13.90;9.47;;;-0.40;99.90;;;;;;5051049;28;20636;-65
2023/01/26 04:33:42;;;;;;;16.63;9.87;;;-0.40;99.90;;;;;;5064880;28;20206;-65
2023/01/26 04:36:09;;;;;;;12.07;9.97;;;-0.30;99.90;;;;;;5072501;28;20327;-65
2023/01/26 04:38:34;;;;;;;10.00;9.17;;;-0.40;99.90;;;;;;5061645;28;20178;-64
2023/01/26 04:41:00;;;;;;;13.00;10.40;;;-0.50;99.90;;;;;;5052078;28;20663;-65
2023/01/26 04:43:26;;;;;;;10.27;9.23;;;-0.60;99.90;;;;;;5060918;28;20269;-65
2023/01/26 04:46:03;;;;;;;10.27;9.43;;;-0.60;99.90;;;;;;5072282;28;20208;-65
2023/01/26 04:48:30;;;;;;;15.53;11.83;;;-0.50;99.90;;;;;;5063053;28;20236;-65
2023/01/26 04:50:57;;;;;;;9.93;9.40;;;-0.50;99.90;;;;;;5051823;28;20253;-65
2023/01/26 04:53:23;;;;;;;11.67;10.63;;;-0.50;99.90;;;;;;5059088;28;20228;-64
2023/01/26 04:55:49;;;;;;;11.57;10.47;;;-0.50;99.90;;;;;;5071989;28;20198;-64
2023/01/26 04:58:14;;;;;;;10.90;9.03;;;-0.50;99.90;;;;;;5065876;28;20198;-65
2023/01/26 05:00:40;;;;;;;19.93;11.17;;;-0.40;99.90;;;;;;5051689;28;20174;-65
2023/01/26 05:03:06;;;;;;;16.77;11.00;;;-0.40;99.90;;;;;;5054927;28;20535;-64
2023/01/26 05:05:36;;;;;;;9.43;8.73;;;-0.40;99.90;;;;;;5071868;28;20162;-65
2023/01/26 05:08:02;;;;;;;10.53;9.50;;;-0.40;99.90;;;;;;5068869;28;20277;-65
2023/01/26 05:10:28;;;;;;;13.77;9.93;;;-0.40;99.90;;;;;;5051355;28;20171;-65
2023/01/26 05:12:54;;;;;;;14.87;11.07;;;-0.30;99.90;;;;;;5051715;28;20251;-65
2023/01/26 05:15:19;;;;;;;11.47;10.53;;;-0.30;99.90;;;;;;5071027;28;20187;-65
2023/01/26 05:17:45;;;;;;;15.27;10.57;;;-0.30;99.90;;;;;;5071664;28;20194;-65
2023/01/26 05:20:11;;;;;;;11.00;10.20;;;-0.30;99.90;;;;;;5051512;28;20186;-65
2023/01/26 05:22:36;;;;;;;18.03;9.30;;;-0.30;99.90;;;;;;5066585;28;20178;-65
2023/01/26 05:25:02;;;;;;;19.63;9.57;;;-0.40;99.90;;;;;;5071732;28;20170;-65
2023/01/26 05:27:28;;;;;;;15.20;9.23;;;-0.30;99.90;;;;;;5057611;28;20572;-65
2023/01/26 05:29:58;;;;;;;25.57;11.20;;;-0.30;99.90;;;;;;5051339;28;20175;-65
2023/01/26 05:32:25;;;;;;;14.70;10.03;;;-0.30;99.90;;;;;;5063885;28;20619;-65
2023/01/26 05:34:51;;;;;;;12.40;11.27;;;-0.30;99.90;;;;;;5071822;28;20658;-65
2023/01/26 05:37:17;;;;;;;11.73;10.63;;;-0.20;99.90;;;;;;5060001;28;20202;-65
2023/01/26 05:39:43;;;;;;;27.33;11.93;;;-0.20;99.90;;;;;;5051270;28;20167;-65
2023/01/26 05:42:11;;;;;;;12.90;10.97;;;-0.20;99.90;;;;;;5060340;28;20523;-65
2023/01/26 05:44:36;;;;;;;12.33;10.17;;;-0.10;99.90;;;;;;5071572;28;20177;-65
2023/01/26 05:47:02;;;;;;;11.20;10.20;;;-0.10;99.90;;;;;;5063000;28;20206;-65
2023/01/26 05:49:28;;;;;;;11.13;10.00;;;-0.20;99.90;;;;;;5051135;28;20261;-65
2023/01/26 05:51:53;;;;;;;10.70;10.00;;;-0.20;99.90;;;;;;5057491;28;20647;-65
2023/01/26 05:54:19;;;;;;;9.50;8.80;;;-0.20;99.90;;;;;;5071189;28;20174;-65
2023/01/26 05:56:45;;;;;;;17.27;10.53;;;-0.20;99.90;;;;;;5066690;28;20217;-65
2023/01/26 05:59:10;;;;;;;11.23;9.83;;;-0.20;99.90;;;;;;5051050;28;20171;-65
2023/01/26 06:01:36;;;;;;;12.03;10.90;;;-0.20;99.90;;;;;;5053745;28;20260;-65
2023/01/26 06:04:02;;;;;;;13.27;10.00;;;-0.20;99.90;;;;;;5071222;28;20204;-64
2023/01/26 06:06:27;;;;;;;11.20;9.77;;;-0.20;99.90;;;;;;5069965;28;20216;-64
2023/01/26 06:08:53;;;;;;;10.93;9.97;;;-0.20;99.90;;;;;;5051442;28;20177;-65
2023/01/26 06:11:18;;;;;;;18.43;11.77;;;-0.20;99.90;;;;;;5050915;28;20196;-65
2023/01/26 06:13:44;;;;;;;11.43;10.17;;;-0.10;99.90;;;;;;5070341;28;20177;-65
2023/01/26 06:16:10;;;;;;;16.23;12.50;;;-0.10;99.90;;;;;;5071105;28;20538;-65
2023/01/26 06:18:35;;;;;;;10.97;9.63;;;0.00;99.90;;;;;;5053190;28;20187;-65
2023/01/26 06:21:01;;;;;;;17.57;10.97;;;0.00;99.90;;;;;;5050802;28;20532;-65
2023/01/26 06:23:27;;;;;;;12.90;8.63;;;0.10;99.90;;;;;;5066578;28;20451;-65
2023/01/26 06:25:56;;;;;;;11.67;10.47;;;0.10;99.90;;;;;;5071183;28;20186;-65
2023/01/26 06:28:22;;;;;;;9.60;8.80;;;0.20;99.90;;;;;;5055876;28;20203;-65
2023/01/26 06:30:48;;;;;;;14.07;12.63;;;0.20;99.90;;;;;;5050636;28;20197;-65
2023/01/26 06:33:13;;;;;;;10.27;9.30;;;0.20;99.90;;;;;;5063819;28;20224;-65
2023/01/26 06:35:39;;;;;;;19.27;11.47;;;0.20;99.90;;;;;;5074797;28;20170;-65
2023/01/26 06:38:04;;;;;;;10.87;9.80;;;0.20;99.90;;;;;;5063379;28;20202;-65
2023/01/26 06:40:30;;;;;;;12.60;10.37;;;0.10;99.90;;;;;;5054281;28;20175;-65
2023/01/26 06:42:55;;;;;;;10.77;9.60;;;0.10;99.90;;;;;;5063742;28;20213;-65
2023/01/26 06:45:21;;;;;;;12.90;11.80;;;0.00;99.90;;;;;;5068691;28;20194;-65
2023/01/26 06:47:48;;;;;;;12.07;9.13;;;0.00;99.90;;;;;;5060746;28;20695;-65
2023/01/26 06:50:30;;;;;;;9.63;8.93;;;0.00;99.90;;;;;;5074147;28;20202;-65
2023/01/26 06:52:59;;;;;;;9.17;8.43;;;0.10;99.90;;;;;;5072814;28;20210;-65
2023/01/26 06:55:34;;;;;;;10.00;9.23;;;0.20;99.90;;;;;;5074288;28;20705;-65
2023/01/26 06:57:59;;;;;;;12.67;10.83;;;0.20;99.90;;;;;;5066725;28;20202;-65
2023/01/26 07:00:25;;;;;;;12.50;9.43;;;0.20;99.90;;;;;;5052678;28;20679;-65
2023/01/26 07:02:51;;;;;;;11.00;10.20;;;0.20;99.90;;;;;;5057016;28;20205;-64
2023/01/26 07:05:16;;;;;;;18.17;10.20;;;0.20;99.90;;;;;;5053742;28;20175;-64
2023/01/26 07:07:42;;;;;;;12.33;9.97;;;0.20;99.90;;;;;;5054321;28;20660;-64
2023/01/26 07:10:08;;;;;;;12.93;9.90;;;0.30;99.90;;;;;;5053814;28;20189;-65
2023/01/26 07:12:41;;;;;;;11.67;9.97;;;0.40;99.90;;;;;;5055243;28;20313;-64
2023/01/26 07:15:08;;;;;;;11.43;10.57;;;0.20;99.90;;;;;;5073877;28;20193;-64
2023/01/26 07:17:33;;;;;;;11.37;10.37;;;0.40;99.90;;;;;;5072236;28;20210;-64
2023/01/26 07:19:59;;;;;;;10.83;9.83;;;0.40;99.90;;;;;;5069675;28;20308;-64
2023/01/26 07:22:24;;;;;;;19.20;12.03;;;0.40;99.90;;;;;;5073544;28;20178;-64
2023/01/26 07:24:50;;;;;;;10.97;9.33;;;0.40;99.90;;;;;;5054190;28;20179;-64
2023/01/26 07:27:15;;;;;;;11.40;10.27;;;0.40;99.90;;;;;;5057318;28;20198;-64
2023/01/26 07:29:41;;;;;;;11.13;9.33;;;0.50;99.90;;;;;;5068758;28;20188;-64
2023/01/26 07:32:06;;;;;;;10.47;9.43;;;0.50;99.90;;;;;;5053154;28;20190;-64
2023/01/26 07:34:32;;;;;;;9.97;9.10;;;0.50;99.90;;;;;;5053688;28;20700;-64
2023/01/26 07:36:58;;;;;;;10.90;9.93;;;0.40;99.90;;;;;;5053550;28;20238;-64
2023/01/26 07:39:23;;;;;;;10.00;9.20;;;0.40;99.90;;;;;;5053287;28;20261;-63
2023/01/26 07:41:50;;;;;;;14.17;10.97;;;0.40;99.90;;;;;;5053568;28;20190;-64
2023/01/26 07:44:15;;;;;;;10.60;8.77;;;0.40;99.90;;;;;;5053525;28;20171;-64
2023/01/26 07:46:41;;;;;;;9.90;9.07;;;0.40;99.90;;;;;;5054059;28;20614;-64
2023/01/26 07:49:06;;;;;;;10.03;9.03;;;0.40;99.90;;;;;;5053337;28;20547;-64
2023/01/26 07:51:32;;;;;;;10.77;8.27;;;0.50;99.90;;;;;;5052411;28;20179;-64
2023/01/26 07:53:58;;;;;;;9.87;9.10;;;0.50;99.90;;;;;;5053548;28;20179;-64
2023/01/26 07:56:24;;;;;;;15.90;9.47;;;0.50;99.90;;;;;;5053028;28;20210;-64
2023/01/26 07:58:51;;;;;;;16.73;10.00;;;0.50;99.90;;;;;;5053434;28;20538;-64
2023/01/26 08:01:17;;;;;;;11.63;9.43;;;0.50;99.90;;;;;;5051573;28;20522;-64
2023/01/26 08:03:44;;;;;;;13.07;10.97;;;0.50;99.90;;;;;;5065307;28;20662;-64
2023/01/26 08:06:11;;;;;;;14.27;11.10;;;0.60;99.90;;;;;;5053360;28;20193;-63
2023/01/26 08:08:40;;;;;;;14.57;10.70;;;0.60;99.90;;;;;;5066452;28;20609;-64
2023/01/26 08:11:06;;;;;;;10.03;9.03;;;0.70;99.90;;;;;;5056414;28;20190;-64
2023/01/26 08:13:32;;;;;;;29.90;13.57;;;0.70;99.90;;;;;;5073103;28;20185;-63
2023/01/26 08:16:09;;;;;;;12.40;10.37;;;0.60;99.90;;;;;;5070195;28;20210;-64
2023/01/26 08:18:35;;;;;;;12.50;11.47;;;0.60;99.90;;;;;;5052968;28;20543;-64
2023/01/26 08:21:00;;;;;;;13.93;10.90;;;0.70;99.90;;;;;;5053636;28;20186;-64
2023/01/26 08:23:26;;;;;;;11.13;10.30;;;0.70;99.90;;;;;;5063285;28;20624;-64
2023/01/26 08:25:52;;;;;;;17.17;11.63;;;0.70;99.90;;;;;;5052904;28;20580;-63
2023/01/26 08:28:18;;;;;;;12.93;9.43;;;0.70;99.90;;;;;;5052689;28;20198;-63
2023/01/26 08:30:43;;;;;;;17.73;10.60;;;0.70;99.90;;;;;;5065303;28;20177;-64
2023/01/26 08:33:09;;;;;;;11.70;9.77;;;0.70;99.90;;;;;;5060473;28;20206;-63
2023/01/26 08:35:35;;;;;;;18.40;11.60;;;0.70;99.90;;;;;;5072351;28;20213;-64
2023/01/26 08:38:00;;;;;;;19.23;11.13;;;0.70;99.90;;;;;;5061896;28;20318;-63
2023/01/26 08:40:26;;;;;;;11.53;9.67;;;0.70;99.90;;;;;;5052318;28;20795;-64
2023/01/26 08:42:53;;;;;;;13.63;10.80;;;0.80;99.90;;;;;;5051992;28;20547;-64
2023/01/26 08:45:18;;;;;;;17.13;9.83;;;0.80;99.90;;;;;;5052550;28;20538;-64
2023/01/26 08:47:47;;;;;;;12.27;11.20;;;0.90;99.90;;;;;;5058254;28;20226;-64
2023/01/26 08:50:12;;;;;;;11.37;10.47;;;0.90;99.90;;;;;;5072070;28;20253;-64
2023/01/26 08:52:38;;;;;;;14.97;11.70;;;0.90;99.90;;;;;;5065473;28;20280;-65
2023/01/26 08:55:04;;;;;;;13.37;12.03;;;0.80;99.90;;;;;;5052374;28;20178;-64
2023/01/26 08:57:29;;;;;;;14.70;11.47;;;0.80;99.90;;;;;;5056027;28;20210;-64
2023/01/26 08:59:55;;;;;;;20.23;10.60;;;0.80;99.90;;;;;;5072844;28;20217;-64
2023/01/26 09:02:21;;;;;;;19.00;12.60;;;0.80;99.90;;;;;;5081312;28;20166;-64
2023/01/26 09:04:46;;;;;;;17.10;11.57;;;0.80;99.90;;;;;;5080954;28;20174;-64
2023/01/26 09:07:12;;;;;;;23.43;16.40;;;0.90;99.90;;;;;;5070062;28;20194;-63
2023/01/26 09:09:37;;;;;;;14.90;11.70;;;0.80;99.90;;;;;;5052014;28;20667;-64
2023/01/26 09:12:03;;;;;;;22.07;13.63;;;0.80;99.90;;;;;;5052414;28;20232;-64
2023/01/26 09:14:29;;;;;;;17.47;14.73;;;0.80;99.90;;;;;;5052749;28;20179;-64
2023/01/26 09:16:55;;;;;;;30.60;15.20;;;0.90;99.90;;;;;;5051698;28;20210;-64
2023/01/26 09:19:20;;;;;;;14.53;13.13;;;0.90;99.90;;;;;;5051899;28;20546;-64
2023/01/26 09:21:46;;;;;;;22.77;11.83;;;0.90;99.90;;;;;;5052036;28;20178;-64
2023/01/26 09:24:11;;;;;;;30.17;11.10;;;1.00;99.90;;;;;;5069470;28;20190;-64
2023/01/26 09:26:37;;;;;;;21.83;13.37;;;1.00;99.90;;;;;;5071602;28;20208;-64
2023/01/26 09:29:03;;;;;;;17.70;12.03;;;1.00;99.90;;;;;;5054621;28;20678;-63
2023/01/26 09:31:28;;;;;;;17.07;13.13;;;1.00;99.90;;;;;;5052053;28;20182;-65
2023/01/26 09:33:54;;;;;;;14.47;11.73;;;1.10;99.90;;;;;;5065643;28;20185;-65
2023/01/26 09:36:20;;;;;;;21.43;13.30;;;1.10;99.90;;;;;;5071464;28;20205;-65
2023/01/26 09:38:45;;;;;;;33.60;12.70;;;1.00;99.90;;;;;;5057088;28;20248;-65
2023/01/26 09:41:48;;;;;;;14.93;10.40;;;1.00;99.90;;;;;;5051312;28;20202;-65
2023/01/26 09:44:25;;;;;;;14.63;11.83;;;1.10;99.90;;;;;;5068756;28;20261;-65
2023/01/26 09:47:03;;;;;;;11.03;9.73;;;1.00;99.90;;;;;;5071644;28;20210;-65
2023/01/26 09:49:40;;;;;;;28.67;13.73;;;1.00;99.90;;;;;;5054167;28;20187;-65
2023/01/26 09:52:14;;;;;;;15.17;13.07;;;1.00;99.90;;;;;;5051362;28;20179;-65
2023/01/26 09:54:50;;;;;;;15.23;11.33;;;1.00;99.90;;;;;;5052955;28;20197;-65
2023/01/26 09:57:22;;;;;;;17.47;11.33;;;1.00;99.90;;;;;;5071354;28;20204;-65
2023/01/26 10:00:10;;;;;;;35.70;13.17;;;1.00;99.90;;;;;;5031678;28;20179;-65
2023/01/26 10:03:13;;;;;;;27.87;14.53;;;1.00;99.90;;;;;;5036175;28;20172;-65
2023/01/26 10:05:47;;;;;;;13.13;11.03;;;1.00;99.90;;;;;;5043548;28;20257;-65
2023/01/26 10:08:17;;;;;;;23.10;12.20;;;1.00;99.90;;;;;;5060523;28;20190;-65
2023/01/26 10:11:13;;;;;;;21.27;11.40;;;1.00;99.90;;;;;;5075362;28;20193;-66
2023/01/26 10:13:45;;;;;;;20.87;14.03;;;1.00;99.90;;;;;;5066197;28;20191;-63
2023/01/26 10:16:12;;;;;;;21.50;12.30;;;1.00;99.90;;;;;;5055269;28;20194;-63
2023/01/26 10:18:57;;;;;;;13.07;11.00;;;1.10;99.90;;;;;;5062218;28;20261;-63
2023/01/26 10:21:28;;;;;;;14.93;11.77;;;1.10;99.90;;;;;;5056657;28;20185;-63
2023/01/26 10:23:55;;;;;;;20.53;11.43;;;1.10;99.90;;;;;;5075293;28;20273;-63
2023/01/26 10:26:22;;;;;;;14.10;11.87;;;1.20;99.90;;;;;;5073303;28;20175;-63
2023/01/26 10:28:52;;;;;;;11.53;10.33;;;1.20;99.90;;;;;;5074951;28;20167;-63
2023/01/26 10:31:21;;;;;;;11.73;10.20;;;1.20;99.90;;;;;;5073282;28;20209;-63
2023/01/26 10:34:14;;;;;;;18.07;11.13;;;1.20;99.90;;;;;;5054855;28;20190;-63
2023/01/26 10:36:43;;;;;;;13.60;12.37;;;1.20;99.90;;;;;;5059089;28;20702;-64
2023/01/26 10:39:12;;;;;;;18.77;9.90;;;1.20;99.90;;;;;;5073900;28;20170;-64
2023/01/26 10:41:38;;;;;;;19.13;14.33;;;1.30;99.90;;;;;;5070760;28;20175;-64
2023/01/26 10:44:10;;;;;;;24.13;10.93;;;1.40;99.90;;;;;;5054228;28;20183;-64
2023/01/26 10:46:37;;;;;;;19.83;10.87;;;1.40;99.90;;;;;;5057192;28;20247;-64
2023/01/26 10:49:24;;;;;;;13.90;12.43;;;1.50;99.90;;;;;;5073772;28;20635;-64
2023/01/26 10:52:24;;;;;;;15.17;12.07;;;1.40;99.90;;;;;;5068902;28;20183;-63
2023/01/26 10:55:11;;;;;;;15.50;9.90;;;1.30;99.90;;;;;;5054917;28;20199;-64
2023/01/26 10:57:38;;;;;;;15.47;12.17;;;1.20;99.90;;;;;;5074188;28;20716;-63
2023/01/26 11:00:27;;;;;;;16.73;11.83;;;1.20;99.90;;;;;;5072260;28;20166;-64
2023/01/26 11:03:17;;;;;;;10.47;9.67;;;1.20;99.90;;;;;;5057816;28;20544;-64
2023/01/26 11:05:46;;;;;;;14.60;10.73;;;1.10;99.90;;;;;;5037979;28;20347;-64
2023/01/26 11:08:35;;;;;;;18.03;14.53;;;1.10;99.90;;;;;;5055563;28;20191;-64
2023/01/26 11:11:02;;;;;;;13.73;11.13;;;1.20;99.90;;;;;;5055124;28;20483;-63
2023/01/26 11:13:29;;;;;;;20.03;10.50;;;1.20;99.90;;;;;;5056789;28;20214;-64
2023/01/26 11:16:22;;;;;;;15.67;11.67;;;1.30;99.90;;;;;;5054175;28;20656;-64
2023/01/26 11:19:17;;;;;;;23.67;12.73;;;1.30;99.90;;;;;;5053456;28;20170;-64
2023/01/26 11:21:52;;;;;;;12.57;11.37;;;1.30;99.90;;;;;;5016789;28;20232;-65
2023/01/26 11:24:37;;;;;;;15.20;11.83;;;1.30;99.90;;;;;;5056742;28;20249;-64
2023/01/26 11:27:19;;;;;;;20.87;12.90;;;1.20;99.90;;;;;;5054900;28;20205;-64
2023/01/26 11:29:53;;;;;;;22.00;9.87;;;1.20;99.90;;;;;;5056525;28;20182;-64
2023/01/26 11:32:29;;;;;;;26.27;10.63;;;1.20;99.90;;;;;;5053594;28;20580;-64
2023/01/26 11:35:06;;;;;;;12.83;11.70;;;1.30;99.90;;;;;;5053869;28;20236;-64
2023/01/26 11:37:50;;;;;;;12.50;10.50;;;1.30;99.90;;;;;;5053290;28;20221;-64
2023/01/26 11:40:30;;;;;;;17.60;10.80;;;1.40;99.90;;;;;;5053285;28;20175;-64
2023/01/26 11:43:42;;;;;;;16.00;12.13;;;1.40;99.90;;;;;;5053661;28;20198;-64
2023/01/26 11:46:34;;;;;;;16.07;10.47;;;1.40;99.90;;;;;;5053161;28;20175;-65
2023/01/26 11:49:26;;;;;;;17.63;11.40;;;1.50;99.90;;;;;;5053477;28;20179;-65
2023/01/26 11:51:54;;;;;;;11.07;10.07;;;1.50;99.90;;;;;;5037460;28;20194;-65
2023/01/26 11:54:38;;;;;;;12.43;9.13;;;1.50;99.90;;;;;;5053098;28;20186;-65
2023/01/26 11:57:18;;;;;;;22.30;12.53;;;1.50;99.90;;;;;;5053243;28;20214;-64
2023/01/26 11:59:53;;;;;;;11.80;10.50;;;1.40;99.90;;;;;;5053301;28;20652;-64
2023/01/26 12:02:34;;;;;;;19.03;11.13;;;1.40;99.90;;;;;;5056209;28;20173;-64
2023/01/26 12:05:21;;;;;;;14.17;11.20;;;1.50;99.90;;;;;;5056143;28;20681;-65
2023/01/26 12:08:05;;;;;;;14.40;11.80;;;1.60;99.90;;;;;;5054905;28;20662;-64
2023/01/26 12:10:44;;;;;;;13.50;12.13;;;1.40;99.90;;;;;;5052258;28;20696;-64
2023/01/26 12:13:28;;;;;;;11.63;9.33;;;1.40;99.90;;;;;;5052802;28;20181;-65
2023/01/26 12:16:00;;;;;;;14.27;10.70;;;1.40;99.90;;;;;;5052859;28;20592;-65
2023/01/26 12:18:30;;;;;;;12.80;11.47;;;1.50;99.90;;;;;;5052863;28;20567;-64
2023/01/26 12:21:03;;;;;;;10.40;9.27;;;1.60;99.90;;;;;;5052544;28;20276;-64
2023/01/26 12:23:46;;;;;;;9.30;8.53;;;1.60;99.90;;;;;;5052736;28;20182;-64
2023/01/26 12:26:22;;;;;;;9.20;8.40;;;1.60;99.90;;;;;;5052724;28;20171;-64
2023/01/26 12:29:07;;;;;;;17.50;9.47;;;1.70;99.90;;;;;;5052579;28;20200;-64
2023/01/26 12:31:39;;;;;;;14.73;11.33;;;1.80;99.90;;;;;;5051561;28;20702;-64
2023/01/26 12:34:10;;;;;;;10.63;9.57;;;1.80;99.90;;;;;;5052841;28;20183;-64
2023/01/26 12:36:51;;;;;;;17.33;10.17;;;1.80;99.90;;;;;;5049099;28;20210;-64
2023/01/26 12:39:25;;;;;;;11.80;10.73;;;1.70;99.90;;;;;;5052328;28;20171;-65
2023/01/26 12:42:25;;;;;;;11.67;10.20;;;1.70;99.90;;;;;;5052590;28;20284;-65
2023/01/26 12:44:59;;;;;;;8.53;7.73;;;1.80;99.90;;;;;;5052301;28;20539;-65
2023/01/26 12:47:49;;;;;;;9.20;8.27;;;1.80;99.90;;;;;;5052020;28;20963;-64
2023/01/26 12:50:39;;;;;;;10.63;9.70;;;1.70;99.90;;;;;;5051874;28;20217;-64
2023/01/26 12:53:31;;;;;;;11.20;10.20;;;1.70;99.90;;;;;;5088889;28;20542;-64
2023/01/26 12:56:31;;;;;;;16.83;10.80;;;1.70;99.90;;;;;;5089071;28;20222;-64
2023/01/26 12:58:58;;;;;;;9.43;8.40;;;1.70;99.90;;;;;;5068696;28;20166;-64
2023/01/26 13:01:35;;;;;;;8.47;7.87;;;1.70;99.90;;;;;;5068495;28;20221;-64
2023/01/26 13:04:08;;;;;;;8.63;7.83;;;1.80;99.90;;;;;;5075202;28;20190;-64
2023/01/26 13:06:33;;;;;;;8.00;7.50;;;1.80;99.90;;;;;;5081727;28;20481;-64
2023/01/26 13:09:22;;;;;;;10.40;9.53;;;1.80;99.90;;;;;;5088675;28;20636;-65
2023/01/26 13:12:00;;;;;;;8.83;8.20;;;1.80;99.90;;;;;;5081095;28;20685;-65
2023/01/26 13:14:36;;;;;;;8.13;7.73;;;1.90;99.90;;;;;;5080647;28;20181;-65
2023/01/26 13:17:13;;;;;;;15.10;10.57;;;1.90;99.90;;;;;;5080405;28;20217;-65
2023/01/26 13:19:42;;;;;;;12.47;10.27;;;1.90;99.90;;;;;;5068356;28;20643;-64
2023/01/26 13:22:23;;;;;;;10.20;9.53;;;1.90;99.90;;;;;;5071983;28;20219;-64
2023/01/26 13:24:54;;;;;;;9.33;8.53;;;1.90;99.90;;;;;;5088280;28;20209;-64
2023/01/26 13:27:31;;;;;;;8.63;7.47;;;1.90;99.90;;;;;;5082918;28;20264;-64
2023/01/26 13:29:57;;;;;;;9.13;8.47;;;1.90;99.90;;;;;;5067782;28;20182;-64
2023/01/26 13:32:23;;;;;;;10.50;9.50;;;2.00;99.90;;;;;;5073909;28;20201;-64
2023/01/26 13:34:58;;;;;;;8.67;8.07;;;2.00;99.90;;;;;;5088183;28;20184;-65
2023/01/26 13:37:34;;;;;;;7.83;7.23;;;2.00;99.90;;;;;;5081583;28;20223;-65
2023/01/26 13:40:05;;;;;;;7.87;7.30;;;2.00;99.90;;;;;;5071072;28;20172;-65
2023/01/26 13:42:42;;;;;;;7.70;7.30;;;2.00;99.90;;;;;;5067909;28;20186;-64
2023/01/26 13:45:18;;;;;;;8.93;8.23;;;2.00;99.90;;;;;;5071758;28;20268;-63